sensor_id;sensor_type;location;lat;lon;timestamp;pressure;altitude;pressure_sealevel;temperature;humidity
80777;BME280;70169;51.262;6.336;2023-11-21T00:02:03;100550.75;;;7.41;99.03
80777;BME280;70169;51.262;6.336;2023-11-21T00:04:19;100553.03;;;7.44;98.68
80777;BME280;70169;51.262;6.336;2023-11-21T00:06:35;100558.91;;;7.46;98.43
80777;BME280;70169;51.262;6.336;2023-11-21T00:08:50;100555.25;;;7.47;99.06
80777;BME280;70169;51.262;6.336;2023-11-21T00:11:06;100562.16;;;7.48;99.24
80777;BME280;70169;51.262;6.336;2023-11-21T00:13:21;100565.41;;;7.50;99.76
80777;BME280;70169;51.262;6.336;2023-11-21T00:15:37;100563.63;;;7.51;98.69
80777;BME280;70169;51.262;6.336;2023-11-21T00:17:52;100563.44;;;7.52;99.32
80777;BME280;70169;51.262;6.336;2023-11-21T00:20:08;100563.25;;;7.54;98.97
80777;BME280;70169;51.262;6.336;2023-11-21T00:22:24;100563.25;;;7.54;99.32
80777;BME280;70169;51.262;6.336;2023-11-21T00:24:39;100567.31;;;7.56;99.11
80777;BME280;70169;51.262;6.336;2023-11-21T00:26:55;100573.41;;;7.57;98.99
80777;BME280;70169;51.262;6.336;2023-11-21T00:29:10;100566.31;;;7.57;99.45
80777;BME280;70169;51.262;6.336;2023-11-21T00:31:26;100559.25;;;7.58;98.83
80777;BME280;70169;51.262;6.336;2023-11-21T00:33:41;100563.69;;;7.57;99.30
80777;BME280;70169;51.262;6.336;2023-11-21T00:35:56;100562.88;;;7.57;99.48
80777;BME280;70169;51.262;6.336;2023-11-21T00:38:12;100569.94;;;7.56;99.05
80777;BME280;70169;51.262;6.336;2023-11-21T00:40:27;100565.53;;;7.57;99.16
80777;BME280;70169;51.262;6.336;2023-11-21T00:42:43;100562.88;;;7.57;99.19
80777;BME280;70169;51.262;6.336;2023-11-21T00:44:59;100574.22;;;7.57;99.40
80777;BME280;70169;51.262;6.336;2023-11-21T00:47:14;100563.06;;;7.55;99.19
80777;BME280;70169;51.262;6.336;2023-11-21T00:49:30;100565.69;;;7.55;98.70
80777;BME280;70169;51.262;6.336;2023-11-21T00:51:45;100564.06;;;7.54;98.72
80777;BME280;70169;51.262;6.336;2023-11-21T00:54:00;100569.31;;;7.54;98.72
80777;BME280;70169;51.262;6.336;2023-11-21T00:56:16;100572.75;;;7.55;98.74
80777;BME280;70169;51.262;6.336;2023-11-21T00:58:31;100577.84;;;7.56;99.26
80777;BME280;70169;51.262;6.336;2023-11-21T01:00:47;100577.03;;;7.56;99.05
80777;BME280;70169;51.262;6.336;2023-11-21T01:03:03;100584.13;;;7.55;98.86
80777;BME280;70169;51.262;6.336;2023-11-21T01:05:19;100584.91;;;7.56;99.11
80777;BME280;70169;51.262;6.336;2023-11-21T01:07:35;100592.00;;;7.55;98.87
80777;BME280;70169;51.262;6.336;2023-11-21T01:09:51;100601.50;;;7.56;98.78
80777;BME280;70169;51.262;6.336;2023-11-21T01:12:07;100601.50;;;7.56;99.76
80777;BME280;70169;51.262;6.336;2023-11-21T01:14:22;100597.44;;;7.54;99.74
80777;BME280;70169;51.262;6.336;2023-11-21T01:16:38;100602.72;;;7.54;99.02
80777;BME280;70169;51.262;6.336;2023-11-21T01:18:53;100597.63;;;7.52;98.86
80777;BME280;70169;51.262;6.336;2023-11-21T01:21:08;100606.31;;;7.53;98.90
80777;BME280;70169;51.262;6.336;2023-11-21T01:23:24;100599.59;;;7.50;98.88
80777;BME280;70169;51.262;6.336;2023-11-21T01:25:39;100611.13;;;7.49;99.01
80777;BME280;70169;51.262;6.336;2023-11-21T01:27:55;100612.13;;;7.48;98.90
80777;BME280;70169;51.262;6.336;2023-11-21T01:30:11;100619.38;;;7.46;99.10
80777;BME280;70169;51.262;6.336;2023-11-21T01:32:27;100614.31;;;7.44;99.14
80777;BME280;70169;51.262;6.336;2023-11-21T01:34:43;100604.97;;;7.42;99.26
80777;BME280;70169;51.262;6.336;2023-11-21T01:36:59;100607.75;;;7.40;98.68
80777;BME280;70169;51.262;6.336;2023-11-21T01:39:15;100611.59;;;7.38;98.96
80777;BME280;70169;51.262;6.336;2023-11-21T01:41:31;100612.59;;;7.37;99.41
80777;BME280;70169;51.262;6.336;2023-11-21T01:43:47;100609.16;;;7.36;99.56
80777;BME280;70169;51.262;6.336;2023-11-21T01:46:02;100604.69;;;7.37;98.98
80777;BME280;70169;51.262;6.336;2023-11-21T01:48:18;100603.06;;;7.36;99.22
80777;BME280;70169;51.262;6.336;2023-11-21T01:50:33;100605.06;;;7.34;99.08
80777;BME280;70169;51.262;6.336;2023-11-21T01:52:49;100607.84;;;7.32;99.61
80777;BME280;70169;51.262;6.336;2023-11-21T01:55:06;100609.69;;;7.32;100.00
80777;BME280;70169;51.262;6.336;2023-11-21T01:57:23;100608.88;;;7.31;99.61
80777;BME280;70169;51.262;6.336;2023-11-21T01:59:41;100614.94;;;7.32;99.98
80777;BME280;70169;51.262;6.336;2023-11-21T02:01:57;100618.19;;;7.34;100.00
80777;BME280;70169;51.262;6.336;2023-11-21T02:04:13;100616.41;;;7.34;100.00
80777;BME280;70169;51.262;6.336;2023-11-21T02:06:29;100621.28;;;7.37;99.63
80777;BME280;70169;51.262;6.336;2023-11-21T02:08:46;100625.56;;;7.38;99.69
80777;BME280;70169;51.262;6.336;2023-11-21T02:11:02;100623.72;;;7.39;100.00
80777;BME280;70169;51.262;6.336;2023-11-21T02:13:17;100628.00;;;7.40;99.73
80777;BME280;70169;51.262;6.336;2023-11-21T02:15:33;100623.53;;;7.40;100.00
80777;BME280;70169;51.262;6.336;2023-11-21T02:17:50;100628.00;;;7.40;100.00
80777;BME280;70169;51.262;6.336;2023-11-21T02:20:06;100631.63;;;7.39;99.59
80777;BME280;70169;51.262;6.336;2023-11-21T02:22:22;100631.00;;;7.37;99.49
80777;BME280;70169;51.262;6.336;2023-11-21T02:24:41;100637.22;;;7.36;99.60
80777;BME280;70169;51.262;6.336;2023-11-21T02:26:57;100636.59;;;7.34;99.85
80777;BME280;70169;51.262;6.336;2023-11-21T02:29:13;100640.44;;;7.31;99.77
80777;BME280;70169;51.262;6.336;2023-11-21T02:31:28;100643.41;;;7.28;99.43
80777;BME280;70169;51.262;6.336;2023-11-21T02:33:45;100642.94;;;7.24;99.10
80777;BME280;70169;51.262;6.336;2023-11-21T02:36:01;100645.75;;;7.23;99.98
80777;BME280;70169;51.262;6.336;2023-11-21T02:38:17;100644.31;;;7.20;100.00
80777;BME280;70169;51.262;6.336;2023-11-21T02:40:32;100644.94;;;7.22;99.70
80777;BME280;70169;51.262;6.336;2023-11-21T02:42:48;100643.09;;;7.23;100.00
80777;BME280;70169;51.262;6.336;2023-11-21T02:45:03;100652.47;;;7.25;100.00
80777;BME280;70169;51.262;6.336;2023-11-21T02:47:20;100642.75;;;7.26;99.73
80777;BME280;70169;51.262;6.336;2023-11-21T02:49:36;100648.66;;;7.28;100.00
80777;BME280;70169;51.262;6.336;2023-11-21T02:51:51;100646.66;;;7.30;100.00
80777;BME280;70169;51.262;6.336;2023-11-21T02:54:07;100646.50;;;7.32;99.91
80777;BME280;70169;51.262;6.336;2023-11-21T02:56:23;100641.41;;;7.30;100.00
80777;BME280;70169;51.262;6.336;2023-11-21T02:58:42;100642.41;;;7.29;100.00
80777;BME280;70169;51.262;6.336;2023-11-21T03:00:59;100648.84;;;7.26;99.93
80777;BME280;70169;51.262;6.336;2023-11-21T03:03:14;100641.31;;;7.23;99.92
80777;BME280;70169;51.262;6.336;2023-11-21T03:05:29;100650.19;;;7.22;99.57
80777;BME280;70169;51.262;6.336;2023-11-21T03:07:45;100659.91;;;7.22;100.00
80777;BME280;70169;51.262;6.336;2023-11-21T03:10:00;100647.56;;;7.22;100.00
80777;BME280;70169;51.262;6.336;2023-11-21T03:12:16;100657.91;;;7.24;99.52
80777;BME280;70169;51.262;6.336;2023-11-21T03:14:31;100653.28;;;7.26;100.00
80777;BME280;70169;51.262;6.336;2023-11-21T03:16:47;100656.75;;;7.26;99.66
80777;BME280;70169;51.262;6.336;2023-11-21T03:19:04;100658.16;;;7.29;100.00
80777;BME280;70169;51.262;6.336;2023-11-21T03:21:20;100666.91;;;7.29;100.00
80777;BME280;70169;51.262;6.336;2023-11-21T03:23:36;100676.41;;;7.30;99.57
80777;BME280;70169;51.262;6.336;2023-11-21T03:25:52;100675.41;;;7.32;100.00
80777;BME280;70169;51.262;6.336;2023-11-21T03:28:07;100674.44;;;7.33;99.80
80777;BME280;70169;51.262;6.336;2023-11-21T03:30:23;100679.50;;;7.34;99.54
80777;BME280;70169;51.262;6.336;2023-11-21T03:32:39;100681.47;;;7.32;100.00
80777;BME280;70169;51.262;6.336;2023-11-21T03:34:56;100685.94;;;7.32;99.71
80777;BME280;70169;51.262;6.336;2023-11-21T03:37:12;100684.94;;;7.33;99.67
80777;BME280;70169;51.262;6.336;2023-11-21T03:39:28;100692.00;;;7.32;99.96
80777;BME280;70169;51.262;6.336;2023-11-21T03:41:44;100692.00;;;7.32;99.76
80777;BME280;70169;51.262;6.336;2023-11-21T03:44:00;100698.44;;;7.29;100.00
80777;BME280;70169;51.262;6.336;2023-11-21T03:46:15;100699.44;;;7.28;100.00
80777;BME280;70169;51.262;6.336;2023-11-21T03:48:31;100696.81;;;7.28;100.00
80777;BME280;70169;51.262;6.336;2023-11-21T03:50:47;100701.25;;;7.28;100.00
80777;BME280;70169;51.262;6.336;2023-11-21T03:53:02;100695.16;;;7.27;100.00
80777;BME280;70169;51.262;6.336;2023-11-21T03:55:19;100705.69;;;7.27;100.00
80777;BME280;70169;51.262;6.336;2023-11-21T03:57:34;100703.88;;;7.28;100.00
80777;BME280;70169;51.262;6.336;2023-11-21T03:59:50;100698.63;;;7.28;100.00
80777;BME280;70169;51.262;6.336;2023-11-21T04:02:06;100705.84;;;7.26;100.00
80777;BME280;70169;51.262;6.336;2023-11-21T04:04:22;100708.66;;;7.24;99.91
80777;BME280;70169;51.262;6.336;2023-11-21T04:06:38;100704.25;;;7.25;100.00
80777;BME280;70169;51.262;6.336;2023-11-21T04:08:53;100701.59;;;7.25;100.00
80777;BME280;70169;51.262;6.336;2023-11-21T04:11:09;100709.50;;;7.25;100.00
80777;BME280;70169;51.262;6.336;2023-11-21T04:13:26;100708.66;;;7.24;100.00
80777;BME280;70169;51.262;6.336;2023-11-21T04:15:42;100702.41;;;7.25;100.00
80777;BME280;70169;51.262;6.336;2023-11-21T04:17:57;100702.59;;;7.24;100.00
80777;BME280;70169;51.262;6.336;2023-11-21T04:20:13;100705.22;;;7.24;100.00
80777;BME280;70169;51.262;6.336;2023-11-21T04:22:29;100713.91;;;7.24;100.00
80777;BME280;70169;51.262;6.336;2023-11-21T04:24:45;100714.94;;;7.23;100.00
80777;BME280;70169;51.262;6.336;2023-11-21T04:27:00;100709.84;;;7.22;100.00
80777;BME280;70169;51.262;6.336;2023-11-21T04:29:17;100717.72;;;7.22;100.00
80777;BME280;70169;51.262;6.336;2023-11-21T04:31:33;100723.78;;;7.22;100.00
80777;BME280;70169;51.262;6.336;2023-11-21T04:33:48;100720.53;;;7.20;100.00
80777;BME280;70169;51.262;6.336;2023-11-21T04:36:04;100723.16;;;7.20;100.00
80777;BME280;70169;51.262;6.336;2023-11-21T04:38:20;100728.44;;;7.20;100.00
80777;BME280;70169;51.262;6.336;2023-11-21T04:40:35;100724.16;;;7.19;100.00
80777;BME280;70169;51.262;6.336;2023-11-21T04:42:50;100725.00;;;7.20;100.00
80777;BME280;70169;51.262;6.336;2023-11-21T04:45:06;100725.63;;;7.22;100.00
80777;BME280;70169;51.262;6.336;2023-11-21T04:47:26;100730.06;;;7.21;100.00
80777;BME280;70169;51.262;6.336;2023-11-21T04:49:42;100736.94;;;7.22;100.00
80777;BME280;70169;51.262;6.336;2023-11-21T04:51:59;100745.63;;;7.23;100.00
80777;BME280;70169;51.262;6.336;2023-11-21T04:54:14;100737.75;;;7.23;100.00
80777;BME280;70169;51.262;6.336;2023-11-21T04:56:29;100735.97;;;7.23;100.00
80777;BME280;70169;51.262;6.336;2023-11-21T04:58:45;100735.78;;;7.25;100.00
80777;BME280;70169;51.262;6.336;2023-11-21T05:01:00;100740.22;;;7.24;100.00
80777;BME280;70169;51.262;6.336;2023-11-21T05:03:16;100737.97;;;7.21;100.00
80777;BME280;70169;51.262;6.336;2023-11-21T05:05:31;100741.56;;;7.20;100.00
80777;BME280;70169;51.262;6.336;2023-11-21T05:07:47;100743.56;;;7.18;100.00
80777;BME280;70169;51.262;6.336;2023-11-21T05:10:05;100747.19;;;7.17;100.00
80777;BME280;70169;51.262;6.336;2023-11-21T05:12:26;100741.75;;;7.19;100.00
80777;BME280;70169;51.262;6.336;2023-11-21T05:14:41;100741.75;;;7.19;100.00
80777;BME280;70169;51.262;6.336;2023-11-21T05:16:57;100747.81;;;7.19;100.00
80777;BME280;70169;51.262;6.336;2023-11-21T05:19:14;100759.97;;;7.20;100.00
80777;BME280;70169;51.262;6.336;2023-11-21T05:21:30;100755.53;;;7.21;100.00
80777;BME280;70169;51.262;6.336;2023-11-21T05:23:48;100759.00;;;7.21;100.00
80777;BME280;70169;51.262;6.336;2023-11-21T05:26:03;100768.31;;;7.24;100.00
80777;BME280;70169;51.262;6.336;2023-11-21T05:28:19;100771.56;;;7.26;100.00
80777;BME280;70169;51.262;6.336;2023-11-21T05:30:34;100776.84;;;7.26;100.00
80777;BME280;70169;51.262;6.336;2023-11-21T05:32:50;100781.13;;;7.27;100.00
80777;BME280;70169;51.262;6.336;2023-11-21T05:35:06;100789.81;;;7.27;100.00
80777;BME280;70169;51.262;6.336;2023-11-21T05:37:25;100788.00;;;7.28;100.00
80777;BME280;70169;51.262;6.336;2023-11-21T05:39:42;100795.06;;;7.27;100.00
80777;BME280;70169;51.262;6.336;2023-11-21T05:41:57;100793.28;;;7.28;100.00
80777;BME280;70169;51.262;6.336;2023-11-21T05:44:13;100788.19;;;7.26;100.00
80777;BME280;70169;51.262;6.336;2023-11-21T05:46:29;100793.44;;;7.26;100.00
80777;BME280;70169;51.262;6.336;2023-11-21T05:48:45;100792.63;;;7.26;100.00
80777;BME280;70169;51.262;6.336;2023-11-21T05:51:01;100803.97;;;7.26;100.00
80777;BME280;70169;51.262;6.336;2023-11-21T05:53:16;100800.66;;;7.24;100.00
80777;BME280;70169;51.262;6.336;2023-11-21T05:55:32;100796.25;;;7.25;100.00
80777;BME280;70169;51.262;6.336;2023-11-21T05:57:48;100799.69;;;7.25;100.00
80777;BME280;70169;51.262;6.336;2023-11-21T06:00:05;100799.69;;;7.25;100.00
80777;BME280;70169;51.262;6.336;2023-11-21T06:02:51;100816.28;;;7.26;100.00
80777;BME280;70169;51.262;6.336;2023-11-21T06:05:09;100811.00;;;7.26;100.00
80777;BME280;70169;51.262;6.336;2023-11-21T06:07:25;100819.91;;;7.25;100.00
80777;BME280;70169;51.262;6.336;2023-11-21T06:09:42;100833.06;;;7.25;100.00
80777;BME280;70169;51.262;6.336;2023-11-21T06:11:57;100825.97;;;7.25;100.00
80777;BME280;70169;51.262;6.336;2023-11-21T06:14:13;100828.44;;;7.27;100.00
80777;BME280;70169;51.262;6.336;2023-11-21T06:16:30;100838.94;;;7.27;100.00
80777;BME280;70169;51.262;6.336;2023-11-21T06:18:45;100844.22;;;7.27;100.00
80777;BME280;70169;51.262;6.336;2023-11-21T06:21:01;100848.31;;;7.29;100.00
80777;BME280;70169;51.262;6.336;2023-11-21T06:23:17;100842.22;;;7.29;100.00
80777;BME280;70169;51.262;6.336;2023-11-21T06:25:32;100845.50;;;7.31;100.00
80777;BME280;70169;51.262;6.336;2023-11-21T06:27:51;100844.84;;;7.29;100.00
80777;BME280;70169;51.262;6.336;2023-11-21T06:30:09;100841.59;;;7.27;100.00
80777;BME280;70169;51.262;6.336;2023-11-21T06:32:24;100850.09;;;7.29;100.00
80777;BME280;70169;51.262;6.336;2023-11-21T06:34:41;100855.38;;;7.29;100.00
80777;BME280;70169;51.262;6.336;2023-11-21T06:36:57;100858.84;;;7.29;100.00
80777;BME280;70169;51.262;6.336;2023-11-21T06:39:12;100860.44;;;7.30;100.00
80777;BME280;70169;51.262;6.336;2023-11-21T06:41:30;100860.44;;;7.30;100.00
80777;BME280;70169;51.262;6.336;2023-11-21T06:43:45;100865.88;;;7.29;100.00
80777;BME280;70169;51.262;6.336;2023-11-21T06:46:01;100871.97;;;7.29;100.00
80777;BME280;70169;51.262;6.336;2023-11-21T06:48:17;100872.78;;;7.30;100.00
80777;BME280;70169;51.262;6.336;2023-11-21T06:50:32;100875.41;;;7.30;100.00
80777;BME280;70169;51.262;6.336;2023-11-21T06:52:48;100881.50;;;7.30;100.00
80777;BME280;70169;51.262;6.336;2023-11-21T06:55:04;100883.13;;;7.32;100.00
80777;BME280;70169;51.262;6.336;2023-11-21T06:57:20;100879.69;;;7.31;100.00
80777;BME280;70169;51.262;6.336;2023-11-21T06:59:35;100879.03;;;7.29;100.00
80777;BME280;70169;51.262;6.336;2023-11-21T07:01:51;100893.00;;;7.29;100.00
80777;BME280;70169;51.262;6.336;2023-11-21T07:04:06;100900.06;;;7.29;100.00
80777;BME280;70169;51.262;6.336;2023-11-21T07:06:22;100902.53;;;7.30;100.00
80777;BME280;70169;51.262;6.336;2023-11-21T07:08:37;100899.88;;;7.30;100.00
80777;BME280;70169;51.262;6.336;2023-11-21T07:10:52;100901.06;;;7.28;100.00
80777;BME280;70169;51.262;6.336;2023-11-21T07:13:08;100902.06;;;7.27;100.00
80777;BME280;70169;51.262;6.336;2023-11-21T07:15:27;100906.50;;;7.26;100.00
80777;BME280;70169;51.262;6.336;2023-11-21T07:17:43;100908.13;;;7.27;100.00
80777;BME280;70169;51.262;6.336;2023-11-21T07:19:59;100908.13;;;7.27;100.00
80777;BME280;70169;51.262;6.336;2023-11-21T07:22:14;100910.75;;;7.27;100.00
80777;BME280;70169;51.262;6.336;2023-11-21T07:24:30;100908.13;;;7.27;100.00
80777;BME280;70169;51.262;6.336;2023-11-21T07:26:47;100912.22;;;7.30;100.00
80777;BME280;70169;51.262;6.336;2023-11-21T07:29:03;100915.84;;;7.29;100.00
80777;BME280;70169;51.262;6.336;2023-11-21T07:31:19;100919.13;;;7.31;100.00
80777;BME280;70169;51.262;6.336;2023-11-21T07:33:34;100919.13;;;7.31;100.00
80777;BME280;70169;51.262;6.336;2023-11-21T07:35:50;100925.22;;;7.32;100.00
80777;BME280;70169;51.262;6.336;2023-11-21T07:38:05;100934.56;;;7.34;100.00
80777;BME280;70169;51.262;6.336;2023-11-21T07:40:21;100934.75;;;7.33;100.00
80777;BME280;70169;51.262;6.336;2023-11-21T07:42:37;100935.56;;;7.33;100.00
80777;BME280;70169;51.262;6.336;2023-11-21T07:44:53;100947.72;;;7.34;100.00
80777;BME280;70169;51.262;6.336;2023-11-21T07:47:08;100950.34;;;7.34;100.00
80777;BME280;70169;51.262;6.336;2023-11-21T07:49:24;100958.03;;;7.36;100.00
80777;BME280;70169;51.262;6.336;2023-11-21T07:51:40;100959.84;;;7.35;100.00
80777;BME280;70169;51.262;6.336;2023-11-21T07:53:55;100961.50;;;7.36;100.00
80777;BME280;70169;51.262;6.336;2023-11-21T07:56:10;100957.22;;;7.35;100.00
80777;BME280;70169;51.262;6.336;2023-11-21T07:58:26;100964.94;;;7.37;100.00
80777;BME280;70169;51.262;6.336;2023-11-21T08:00:41;100969.22;;;7.38;100.00
80777;BME280;70169;51.262;6.336;2023-11-21T08:02:57;100973.47;;;7.39;100.00
80777;BME280;70169;51.262;6.336;2023-11-21T08:05:12;100982.03;;;7.41;100.00
80777;BME280;70169;51.262;6.336;2023-11-21T08:07:28;100983.47;;;7.43;100.00
80777;BME280;70169;51.262;6.336;2023-11-21T08:09:43;100987.41;;;7.47;100.00
80777;BME280;70169;51.262;6.336;2023-11-21T08:11:59;100981.81;;;7.51;100.00
80777;BME280;70169;51.262;6.336;2023-11-21T08:14:17;100985.72;;;7.55;100.00
80777;BME280;70169;51.262;6.336;2023-11-21T08:16:32;100986.00;;;7.60;100.00
80777;BME280;70169;51.262;6.336;2023-11-21T08:18:48;100988.97;;;7.65;100.00
80777;BME280;70169;51.262;6.336;2023-11-21T08:21:03;100993.88;;;7.68;100.00
80777;BME280;70169;51.262;6.336;2023-11-21T08:23:20;100996.19;;;7.71;100.00
80777;BME280;70169;51.262;6.336;2023-11-21T08:25:36;100989.09;;;7.72;100.00
80777;BME280;70169;51.262;6.336;2023-11-21T08:27:51;100997.63;;;7.74;100.00
80777;BME280;70169;51.262;6.336;2023-11-21T08:30:07;101004.53;;;7.75;100.00
80777;BME280;70169;51.262;6.336;2023-11-21T08:32:23;101009.78;;;7.75;100.00
80777;BME280;70169;51.262;6.336;2023-11-21T08:34:38;101005.16;;;7.77;100.00
80777;BME280;70169;51.262;6.336;2023-11-21T08:36:55;101014.72;;;7.78;100.00
80777;BME280;70169;51.262;6.336;2023-11-21T08:39:12;101015.53;;;7.78;100.00
80777;BME280;70169;51.262;6.336;2023-11-21T08:41:28;101012.09;;;7.78;100.00
80777;BME280;70169;51.262;6.336;2023-11-21T08:43:43;101017.34;;;7.78;100.00
80777;BME280;70169;51.262;6.336;2023-11-21T08:46:00;101011.06;;;7.79;100.00
80777;BME280;70169;51.262;6.336;2023-11-21T08:48:15;101023.06;;;7.81;100.00
80777;BME280;70169;51.262;6.336;2023-11-21T08:50:30;101016.81;;;7.82;100.00
80777;BME280;70169;51.262;6.336;2023-11-21T08:52:46;101022.09;;;7.82;100.00
80777;BME280;70169;51.262;6.336;2023-11-21T08:55:02;101016.00;;;7.82;100.00
80777;BME280;70169;51.262;6.336;2023-11-21T08:57:23;101021.88;;;7.84;100.00
80777;BME280;70169;51.262;6.336;2023-11-21T08:59:38;101024.19;;;7.87;100.00
80777;BME280;70169;51.262;6.336;2023-11-21T09:01:54;101034.53;;;7.89;100.00
80777;BME280;70169;51.262;6.336;2023-11-21T09:04:09;101038.81;;;7.90;100.00
80777;BME280;70169;51.262;6.336;2023-11-21T09:06:25;101038.63;;;7.91;100.00
80777;BME280;70169;51.262;6.336;2023-11-21T09:08:40;101044.38;;;7.95;100.00
80777;BME280;70169;51.262;6.336;2023-11-21T09:10:57;101044.19;;;7.96;100.00
80777;BME280;70169;51.262;6.336;2023-11-21T09:13:13;101044.84;;;7.98;100.00
80777;BME280;70169;51.262;6.336;2023-11-21T09:15:28;101051.41;;;8.02;100.00
80777;BME280;70169;51.262;6.336;2023-11-21T09:17:43;101054.84;;;8.03;99.76
80777;BME280;70169;51.262;6.336;2023-11-21T09:20:00;101059.75;;;8.06;100.00
80777;BME280;70169;51.262;6.336;2023-11-21T09:22:16;101063.03;;;8.08;100.00
80777;BME280;70169;51.262;6.336;2023-11-21T09:24:32;101075.38;;;8.08;100.00
80777;BME280;70169;51.262;6.336;2023-11-21T09:26:48;101071.78;;;8.09;100.00
80777;BME280;70169;51.262;6.336;2023-11-21T09:29:04;101073.94;;;8.05;99.32
80777;BME280;70169;51.262;6.336;2023-11-21T09:31:20;101080.19;;;8.04;99.73
80777;BME280;70169;51.262;6.336;2023-11-21T09:33:38;101076.91;;;8.02;99.69
80777;BME280;70169;51.262;6.336;2023-11-21T09:35:53;101084.81;;;8.02;100.00
80777;BME280;70169;51.262;6.336;2023-11-21T09:38:09;101080.34;;;8.02;99.61
80777;BME280;70169;51.262;6.336;2023-11-21T09:40:25;101084.63;;;8.03;99.89
80777;BME280;70169;51.262;6.336;2023-11-21T09:42:55;101088.72;;;8.06;100.00
80777;BME280;70169;51.262;6.336;2023-11-21T09:45:35;101092.84;;;8.09;100.00
80777;BME280;70169;51.262;6.336;2023-11-21T09:47:52;101098.72;;;8.11;100.00
80777;BME280;70169;51.262;6.336;2023-11-21T09:50:09;101090.66;;;8.12;100.00
80777;BME280;70169;51.262;6.336;2023-11-21T09:52:26;101097.22;;;8.16;100.00
80777;BME280;70169;51.262;6.336;2023-11-21T09:54:42;101084.53;;;8.20;100.00
80777;BME280;70169;51.262;6.336;2023-11-21T09:56:59;101092.72;;;8.25;100.00
80777;BME280;70169;51.262;6.336;2023-11-21T09:59:15;101097.47;;;8.30;99.93
80777;BME280;70169;51.262;6.336;2023-11-21T10:01:31;101090.66;;;8.35;100.00
80777;BME280;70169;51.262;6.336;2023-11-21T10:03:47;101090.97;;;8.40;100.00
80777;BME280;70169;51.262;6.336;2023-11-21T10:06:03;101096.56;;;8.46;100.00
80777;BME280;70169;51.262;6.336;2023-11-21T10:08:22;101097.66;;;8.51;99.92
80777;BME280;70169;51.262;6.336;2023-11-21T10:10:46;101097.66;;;8.51;99.59
80777;BME280;70169;51.262;6.336;2023-11-21T10:13:05;101098.50;;;8.52;99.63
80777;BME280;70169;51.262;6.336;2023-11-21T10:15:22;101095.69;;;8.53;99.26
80777;BME280;70169;51.262;6.336;2023-11-21T10:17:40;101100.47;;;8.50;98.98
80777;BME280;70169;51.262;6.336;2023-11-21T10:20:00;101101.94;;;8.52;99.26
80777;BME280;70169;51.262;6.336;2023-11-21T10:22:15;101106.06;;;8.55;100.00
80777;BME280;70169;51.262;6.336;2023-11-21T10:24:32;101112.13;;;8.55;100.00
80777;BME280;70169;51.262;6.336;2023-11-21T10:26:48;101108.50;;;8.56;100.00
80777;BME280;70169;51.262;6.336;2023-11-21T10:29:04;101112.78;;;8.57;99.50
80777;BME280;70169;51.262;6.336;2023-11-21T10:31:20;101112.41;;;8.61;100.00
80777;BME280;70169;51.262;6.336;2023-11-21T10:33:35;101117.34;;;8.64;99.77
80777;BME280;70169;51.262;6.336;2023-11-21T10:35:50;101124.09;;;8.66;99.51
80777;BME280;70169;51.262;6.336;2023-11-21T10:38:06;101123.69;;;8.69;99.32
80777;BME280;70169;51.262;6.336;2023-11-21T10:40:27;101125.97;;;8.72;99.51
80777;BME280;70169;51.262;6.336;2023-11-21T10:42:44;101123.00;;;8.75;99.36
80777;BME280;70169;51.262;6.336;2023-11-21T10:44:59;101127.91;;;8.79;99.79
80777;BME280;70169;51.262;6.336;2023-11-21T10:47:16;101132.03;;;8.81;99.73
80777;BME280;70169;51.262;6.336;2023-11-21T10:49:34;101125.56;;;8.84;99.06
80777;BME280;70169;51.262;6.336;2023-11-21T10:51:53;101137.13;;;8.83;99.15
80777;BME280;70169;51.262;6.336;2023-11-21T10:54:09;101139.41;;;8.86;99.14
80777;BME280;70169;51.262;6.336;2023-11-21T10:56:25;101137.56;;;8.86;98.85
80777;BME280;70169;51.262;6.336;2023-11-21T10:58:42;101138.75;;;8.84;98.81
80777;BME280;70169;51.262;6.336;2023-11-21T11:00:59;101128.03;;;8.85;98.95
80777;BME280;70169;51.262;6.336;2023-11-21T11:03:15;101135.75;;;8.87;99.29
80777;BME280;70169;51.262;6.336;2023-11-21T11:05:31;101139.06;;;8.89;99.26
80777;BME280;70169;51.262;6.336;2023-11-21T11:07:53;101136.06;;;8.92;98.95
80777;BME280;70169;51.262;6.336;2023-11-21T11:10:15;101143.41;;;8.97;98.91
80777;BME280;70169;51.262;6.336;2023-11-21T11:12:31;101142.06;;;9.01;99.12
80777;BME280;70169;51.262;6.336;2023-11-21T11:14:48;101145.78;;;9.06;99.23
80777;BME280;70169;51.262;6.336;2023-11-21T11:17:03;101147.91;;;9.11;98.81
80777;BME280;70169;51.262;6.336;2023-11-21T11:19:21;101147.53;;;9.14;98.50
80777;BME280;70169;51.262;6.336;2023-11-21T11:21:49;101154.28;;;9.17;98.84
80777;BME280;70169;51.262;6.336;2023-11-21T11:24:49;101149.81;;;9.17;98.05
80777;BME280;70169;51.262;6.336;2023-11-21T11:34:33;101150.94;;;9.23;97.94
80777;BME280;70169;51.262;6.336;2023-11-21T11:37:08;101148.94;;;9.25;97.96
80777;BME280;70169;51.262;6.336;2023-11-21T11:39:50;101149.03;;;9.31;97.89
80777;BME280;70169;51.262;6.336;2023-11-21T11:42:08;101152.28;;;9.34;98.08
80777;BME280;70169;51.262;6.336;2023-11-21T11:47:13;101168.41;;;9.39;97.48
80777;BME280;70169;51.262;6.336;2023-11-21T11:49:29;101166.59;;;9.39;97.46
80777;BME280;70169;51.262;6.336;2023-11-21T11:51:44;101160.97;;;9.42;97.10
80777;BME280;70169;51.262;6.336;2023-11-21T11:54:00;101163.25;;;9.45;97.18
80777;BME280;70169;51.262;6.336;2023-11-21T11:56:22;101167.31;;;9.48;97.01
80777;BME280;70169;51.262;6.336;2023-11-21T11:58:39;101165.50;;;9.48;96.77
80777;BME280;70169;51.262;6.336;2023-11-21T12:00:55;101177.88;;;9.48;96.50
80777;BME280;70169;51.262;6.336;2023-11-21T12:03:10;101162.03;;;9.48;96.64
80777;BME280;70169;51.262;6.336;2023-11-21T12:05:27;101172.59;;;9.48;96.44
80777;BME280;70169;51.262;6.336;2023-11-21T12:10:05;101171.78;;;9.47;96.82
80777;BME280;70169;51.262;6.336;2023-11-21T12:12:22;101180.50;;;9.48;96.77